Time;durP1;ratioP1;P1;durP2;ratioP2;P2;SDS_P1;SDS_P2;PMS_P1;PMS_P2;Temp;Humidity;BMP_temperature;BMP_pressure;BME280_temperature;BME280_humidity;BME280_pressure;Samples;Min_cycle;Max_cycle;Signal;HPM_P1;HPM_P2
2022/06/04 00:01:26;;;;;;;5.40;2.83;;;;;;;11.87;100.00;102293.94;5042024;28;20191;-88
2022/06/04 00:03:52;;;;;;;7.80;3.27;;;;;;;11.35;100.00;102223.63;5045916;28;20496;-86
2022/06/04 00:06:17;;;;;;;5.30;2.80;;;;;;;10.91;100.00;102098.66;5046576;28;20497;-87
2022/06/04 00:08:42;;;;;;;4.60;3.13;;;;;;;11.17;100.00;102170.94;5045894;28;20583;-88
2022/06/04 00:16:36;;;;;;;5.40;3.47;;;;;;;11.82;100.00;102335.75;5040596;28;20470;-87
2022/06/04 00:19:02;;;;;;;5.23;3.60;;;;;;;11.38;100.00;102237.56;5046257;28;20951;-87
2022/06/04 00:21:27;;;;;;;5.90;3.23;;;;;;;11.84;100.00;102280.81;5044919;28;20211;-86
2022/06/04 00:23:53;;;;;;;5.30;2.90;;;;;;;9.74;100.00;102016.63;5047579;28;20453;-87
2022/06/04 00:26:19;;;;;;;4.53;3.07;;;;;;;10.47;100.00;102128.53;5041410;28;20300;-87
2022/06/04 00:28:48;;;;;;;5.30;3.27;;;;;;;10.44;100.00;102107.38;5043184;28;20234;-87
2022/06/04 00:31:16;;;;;;;6.03;3.20;;;;;;;11.98;100.00;102317.78;5048929;28;20815;-86
2022/06/04 00:33:41;;;;;;;4.03;3.63;;;;;;;12.04;100.00;102312.72;5047763;28;20451;-86
2022/06/04 00:36:07;;;;;;;5.23;3.80;;;;;;;11.03;100.00;102185.91;5045231;28;20446;-87
2022/06/04 00:38:33;;;;;;;4.33;2.87;;;;;;;11.90;100.00;102301.66;5048853;28;20229;-87
2022/06/04 00:41:11;;;;;;;5.50;3.43;;;;;;;11.95;100.00;102302.00;5046297;28;20188;-86
2022/06/04 00:44:01;;;;;;;5.90;3.67;;;;;;;11.82;100.00;102304.31;5045439;28;20486;-87
2022/06/04 00:46:41;;;;;;;5.77;3.60;;;;;;;11.29;100.00;102199.13;5038403;28;21399;-86
2022/06/04 00:49:20;;;;;;;5.03;3.63;;;;;;;11.62;100.00;102268.91;5036126;28;20477;-86
2022/06/04 00:51:50;;;;;;;8.00;3.93;;;;;;;11.04;100.00;102206.34;5037910;28;20492;-86
2022/06/04 00:54:17;;;;;;;6.20;3.17;;;;;;;10.96;100.00;102189.41;5029861;28;20874;-86
2022/06/04 00:57:07;;;;;;;7.80;3.80;;;;;;;11.85;100.00;102317.47;5045983;28;20530;-85
2022/06/04 00:59:43;;;;;;;6.07;4.20;;;;;;;11.62;100.00;102313.78;5039584;28;20513;-88
2022/06/04 01:02:25;;;;;;;7.17;3.83;;;;;;;11.71;100.00;102315.44;5043209;28;20441;-87
2022/06/04 01:05:42;;;;;;;6.57;3.70;;;;;;;11.24;100.00;102251.69;5025729;28;20450;-87
2022/06/04 01:08:18;;;;;;;6.07;3.20;;;;;;;11.66;100.00;102313.28;5043194;28;20465;-85
2022/06/04 01:11:13;;;;;;;7.70;3.83;;;;;;;11.64;100.00;102314.44;5038398;28;20451;-86
2022/06/04 01:14:05;;;;;;;7.63;4.60;;;;;;;11.20;100.00;102250.34;5042087;28;20984;-87
2022/06/04 01:16:45;;;;;;;7.60;3.50;;;;;;;11.77;100.00;102322.81;5066263;28;20437;-87
2022/06/04 01:19:49;;;;;;;4.90;3.53;;;;;;;11.22;100.00;102256.38;5042296;28;20525;-87
2022/06/04 01:22:35;;;;;;;6.57;4.13;;;;;;;11.07;100.00;102234.72;5043568;28;20445;-88
2022/06/04 01:25:25;;;;;;;5.90;3.63;;;;;;;11.70;100.00;102306.53;5036106;28;20446;-87
2022/06/04 01:27:58;;;;;;;5.10;3.63;;;;;;;11.63;100.00;102292.13;5043330;28;20954;-89
2022/06/04 01:30:29;;;;;;;4.77;3.37;;;;;;;11.37;100.00;102294.13;5042674;28;21135;-88
2022/06/04 01:33:03;;;;;;;7.80;4.33;;;;;;;11.39;100.00;102287.59;5038591;28;20435;-88
2022/06/04 01:35:31;;;;;;;7.50;4.13;;;;;;;11.51;100.00;102305.06;5038394;28;20445;-87
2022/06/04 01:38:00;;;;;;;5.73;3.60;;;;;;;11.61;100.00;102294.13;5039300;28;20457;-88
2022/06/04 01:43:26;;;;;;;6.00;4.07;;;;;;;11.18;100.00;102274.66;5045102;28;20607;-88
2022/06/04 01:45:56;;;;;;;10.60;4.63;;;;;;;10.86;100.00;102225.31;5043447;28;20521;-86
2022/06/04 01:48:23;;;;;;;6.73;4.20;;;;;;;11.14;100.00;102313.63;5048397;28;20461;-87
2022/06/04 01:50:56;;;;;;;4.27;3.87;;;;;;;11.26;100.00;102298.84;5044018;28;20457;-87
2022/06/04 01:53:28;;;;;;;3.57;3.20;;;;;;;10.43;100.00;102162.03;5046181;28;20445;-87
2022/06/04 01:55:58;;;;;;;4.87;3.60;;;;;;;11.34;100.00;102303.41;5045726;28;20442;-87
2022/06/04 01:58:51;;;;;;;5.70;3.67;;;;;;;11.35;100.00;102294.31;5047234;28;21400;-88
2022/06/04 02:01:23;;;;;;;6.77;3.43;;;;;;;10.18;100.00;102108.34;5040633;28;20605;-88
2022/06/04 02:04:13;;;;;;;10.17;4.13;;;;;;;11.37;100.00;102291.44;5049840;28;20969;-86
2022/06/04 02:06:43;;;;;;;6.10;3.83;;;;;;;10.71;100.00;102204.69;5050323;28;20514;-87
2022/06/04 02:09:16;;;;;;;3.80;3.27;;;;;;;11.16;100.00;102286.59;5048816;28;20493;-88
2022/06/04 02:11:51;;;;;;;5.07;3.30;;;;;;;10.91;100.00;102246.31;5046505;28;20941;-86
2022/06/04 02:14:18;;;;;;;5.90;3.30;;;;;;;11.18;100.00;102271.16;5044810;28;20973;-79
2022/06/04 02:16:50;;;;;;;4.73;3.53;;;;;;;10.43;100.00;102201.44;5045861;28;20994;-85
2022/06/04 02:19:16;;;;;;;6.13;4.40;;;;;;;10.52;100.00;102189.72;5046169;28;20466;-87
2022/06/04 02:21:41;;;;;;;6.57;3.10;;;;;;;9.06;100.00;101980.09;5053060;28;20441;-87
2022/06/04 02:24:09;;;;;;;5.60;3.23;;;;;;;10.50;100.00;102195.28;5048925;28;20242;-84
2022/06/04 02:26:35;;;;;;;4.93;3.33;;;;;;;10.35;100.00;102199.56;5048508;28;20193;-86
2022/06/04 02:29:01;;;;;;;6.27;3.20;;;;;;;10.03;100.00;102155.56;5044952;28;20573;-86
2022/06/04 02:31:33;;;;;;;6.20;3.40;;;;;;;10.93;100.00;102314.06;5050402;28;20504;-86
2022/06/04 02:34:20;;;;;;;5.43;2.80;;;;;;;11.12;100.00;102318.31;5045382;28;20477;-86
2022/06/04 02:36:52;;;;;;;6.67;3.03;;;;;;;10.86;100.00;102329.16;5049125;28;20430;-89
2022/06/04 02:39:29;;;;;;;4.20;3.07;;;;;;;10.93;100.00;102348.13;5047262;28;20454;-87
2022/06/04 02:42:15;;;;;;;3.80;2.97;;;;;;;11.03;100.00;102341.63;5039947;28;20501;-89
2022/06/04 02:44:54;;;;;;;5.73;2.97;;;;;;;11.04;100.00;102334.41;5052757;28;20943;-89
2022/06/04 02:47:27;;;;;;;4.37;3.00;;;;;;;10.77;100.00;102301.47;5046406;28;20967;-88
2022/06/04 02:50:00;;;;;;;4.10;2.90;;;;;;;10.93;100.00;102348.97;5049979;28;20454;-87
2022/06/04 02:52:26;;;;;;;3.83;2.73;;;;;;;10.17;100.00;102259.50;5045428;28;20880;-89
2022/06/04 02:54:57;;;;;;;4.60;3.27;;;;;;;10.41;100.00;102303.53;5045528;28;20450;-90
2022/06/04 02:57:26;;;;;;;5.30;2.73;;;;;;;10.07;100.00;102209.72;5047994;28;20478;-90
2022/06/04 02:59:53;;;;;;;3.30;2.80;;;;;;;10.05;100.00;102238.50;5042098;28;20441;-86
2022/06/04 03:02:19;;;;;;;4.73;3.10;;;;;;;10.80;100.00;102362.03;5045848;28;20446;-87
2022/06/04 03:04:49;;;;;;;5.43;3.67;;;;;;;10.83;100.00;102365.22;5048879;28;20460;-86
2022/06/04 03:07:16;;;;;;;3.90;3.37;;;;;;;10.90;100.00;102351.97;5045255;28;20449;-87
2022/06/04 03:09:44;;;;;;;6.00;2.93;;;;;;;10.19;100.00;102253.97;5050246;28;20462;-86
2022/06/04 03:12:11;;;;;;;4.53;3.33;;;;;;;10.76;100.00;102355.31;5043685;28;20495;-87
2022/06/04 03:14:37;;;;;;;3.93;2.80;;;;;;;9.80;100.00;102216.09;5045270;28;20907;-87
2022/06/04 03:17:07;;;;;;;3.13;2.60;;;;;;;9.40;100.00;102161.31;5047914;28;20450;-87
2022/06/04 03:19:33;;;;;;;2.13;1.97;;;;;;;9.63;100.00;102240.16;5051321;28;20632;-87
2022/06/04 03:22:00;;;;;;;3.83;2.83;;;;;;;9.17;100.00;102123.50;5044934;28;20498;-85
2022/06/04 03:24:26;;;;;;;5.47;2.40;;;;;;;10.65;100.00;102351.09;5043015;28;20664;-87
2022/06/04 03:26:51;;;;;;;2.90;2.60;;;;;;;10.72;100.00;102354.78;5047210;28;20872;-87
2022/06/04 03:29:17;;;;;;;4.10;2.70;;;;;;;10.74;100.00;102327.81;5038175;28;20470;-87
2022/06/04 03:31:42;;;;;;;2.93;2.60;;;;;;;10.09;100.00;102253.25;5040413;28;20441;-85
2022/06/04 03:34:08;;;;;;;5.30;2.90;;;;;;;10.61;100.00;102380.06;5043407;28;20561;-85
2022/06/04 03:36:35;;;;;;;5.13;2.87;;;;;;;10.95;100.00;102356.88;5038022;28;20211;-87
2022/06/04 03:39:02;;;;;;;2.67;2.47;;;;;;;9.85;100.00;102213.78;5034074;28;20987;-87
2022/06/04 03:41:28;;;;;;;3.73;2.80;;;;;;;10.50;100.00;102278.44;5047393;28;20443;-87
2022/06/04 03:43:53;;;;;;;2.60;2.40;;;;;;;10.69;100.00;102305.97;5047278;28;20504;-86
2022/06/04 03:46:20;;;;;;;4.53;2.73;;;;;;;10.59;100.00;102265.88;5043816;28;20188;-84
2022/06/04 03:48:46;;;;;;;2.37;2.10;;;;;;;10.97;100.00;102331.53;5025060;28;20211;-86
2022/06/04 03:51:11;;;;;;;3.30;2.50;;;;;;;10.90;100.00;102316.25;5035823;28;20441;-88
2022/06/04 03:53:37;;;;;;;6.37;2.70;;;;;;;10.09;100.00;102196.94;5031841;28;20187;-88
2022/06/04 03:56:02;;;;;;;3.73;2.70;;;;;;;10.16;100.00;102176.56;5024285;28;20993;-87
2022/06/04 03:58:30;;;;;;;4.13;2.13;;;;;;;10.51;100.00;102202.31;5022880;28;20283;-88
2022/06/04 04:00:56;;;;;;;3.50;2.67;;;;;;;11.06;100.00;102287.59;5034561;28;20217;-88
2022/06/04 04:03:23;;;;;;;2.57;2.13;;;;;;;10.38;100.00;102210.81;5039547;28;20450;-87
2022/06/04 04:05:55;;;;;;;2.97;2.20;;;;;;;11.17;100.00;102324.03;5039473;28;20453;-87
2022/06/04 04:08:24;;;;;;;2.10;1.90;;;;;;;11.10;100.00;102314.94;5045679;28;20525;-87
2022/06/04 04:10:50;;;;;;;2.50;2.30;;;;;;;10.46;100.00;102198.44;5040512;28;20445;-87
2022/06/04 04:13:17;;;;;;;3.63;2.20;;;;;;;11.42;100.00;102313.28;5040949;28;20437;-87
2022/06/04 04:15:43;;;;;;;3.20;2.57;;;;;;;11.38;100.00;102309.25;5041865;28;20256;-86
2022/06/04 04:18:09;;;;;;;3.47;2.43;;;;;;;11.05;100.00;102256.38;5044052;28;20838;-87
2022/06/04 04:20:37;;;;;;;2.90;2.57;;;;;;;10.59;100.00;102212.22;5044055;28;20464;-88
2022/06/04 04:23:05;;;;;;;2.40;2.20;;;;;;;10.88;100.00;102254.69;5037582;28;20451;-87
2022/06/04 04:25:31;;;;;;;8.53;2.87;;;;;;;11.46;100.00;102314.63;5037340;28;20449;-87
2022/06/04 04:27:57;;;;;;;3.10;2.37;;;;;;;11.49;100.00;102309.75;5037799;28;20474;-88
2022/06/04 04:30:25;;;;;;;4.80;2.80;;;;;;;10.50;100.00;102144.31;5040811;28;20262;-87
2022/06/04 04:32:52;;;;;;;9.20;3.20;;;;;;;10.95;100.00;102223.47;5042235;28;20487;-88
2022/06/04 04:35:21;;;;;;;3.93;3.03;;;;;;;11.58;100.00;102317.81;5041008;28;20442;-89
2022/06/04 04:37:47;;;;;;;5.33;3.00;;;;;;;10.48;100.00;102148.97;5044739;28;20476;-89
2022/06/04 04:40:14;;;;;;;2.50;2.30;;;;;;;10.72;100.00;102169.63;5044686;28;20480;-88
2022/06/04 04:42:41;;;;;;;3.83;2.73;;;;;;;11.28;100.00;102242.25;5045489;28;20439;-89
2022/06/04 04:45:07;;;;;;;5.00;3.10;;;;;;;11.24;100.00;102255.19;5042131;28;20521;-87
2022/06/04 04:47:38;;;;;;;3.17;2.60;;;;;;;11.88;100.00;102332.41;5044154;28;21424;-89
2022/06/04 04:50:12;;;;;;;3.30;3.00;;;;;;;11.77;100.00;102347.00;5036237;28;20835;-88
2022/06/04 04:52:38;;;;;;;2.83;2.50;;;;;;;11.82;100.00;102320.47;5055986;28;20434;-88
2022/06/04 04:55:04;;;;;;;3.23;2.70;;;;;;;11.67;100.00;102298.81;5050372;28;20444;-87
2022/06/04 04:57:29;;;;;;;3.10;2.43;;;;;;;11.03;100.00;102244.97;5043199;28;20239;-88
2022/06/04 04:59:55;;;;;;;3.80;2.57;;;;;;;10.75;100.00;102171.13;5048882;28;20439;-88
2022/06/04 05:02:20;;;;;;;5.77;2.60;;;;;;;11.69;100.00;102301.34;5041678;28;20183;-89
2022/06/04 05:04:46;;;;;;;5.00;3.30;;;;;;;12.09;100.00;102346.16;5058771;28;20194;-89
2022/06/04 05:07:12;;;;;;;4.07;2.10;;;;;;;12.08;100.00;102346.31;5046432;22;20236;-72
2022/06/04 05:09:39;;;;;;;3.57;2.70;;;;;;;12.24;100.00;102340.03;5043196;28;20540;-73
2022/06/04 05:12:06;;;;;;;2.60;2.40;;;;;;;11.92;100.00;102294.28;5045888;28;20595;-73
2022/06/04 05:14:32;;;;;;;3.10;2.90;;;;;;;11.53;100.00;102251.13;5041434;28;20814;-72
2022/06/04 05:16:57;;;;;;;3.70;2.67;;;;;;;11.46;100.00;102232.19;5030452;28;20470;-72
2022/06/04 05:19:23;;;;;;;3.40;2.97;;;;;;;12.08;100.00;102322.13;5028885;28;20175;-72
2022/06/04 05:21:52;;;;;;;4.83;3.53;;;;;;;12.35;100.00;102353.13;5035705;28;20272;-72
2022/06/04 05:24:27;;;;;;;3.43;2.80;;;;;;;12.22;100.00;102326.78;5039304;28;20194;-72
2022/06/04 05:26:53;;;;;;;3.70;3.03;;;;;;;12.51;100.00;102354.94;5038704;28;20545;-72
2022/06/04 05:29:20;;;;;;;2.60;2.40;;;;;;;12.36;100.00;102341.38;5035045;28;21040;-73
2022/06/04 05:31:46;;;;;;;4.40;3.10;;;;;;;12.58;100.00;102359.47;5042215;28;20439;-72
2022/06/04 05:34:14;;;;;;;3.90;2.93;;;;;;;12.46;100.00;102360.00;5038637;28;20438;-72
2022/06/04 05:36:40;;;;;;;4.33;2.80;;;;;;;12.76;100.00;102372.66;5040073;28;20485;-72
2022/06/04 05:39:07;;;;;;;3.00;2.70;;;;;;;11.50;100.00;102163.63;5038074;28;20918;-72
2022/06/04 05:41:32;;;;;;;3.50;3.20;;;;;;;12.82;100.00;102363.03;5040338;28;20203;-72
2022/06/04 05:43:58;;;;;;;2.77;2.40;;;;;;;12.66;100.00;102321.69;5040599;28;20442;-72
2022/06/04 05:46:24;;;;;;;3.60;3.30;;;;;;;12.98;100.00;102364.78;5035014;28;20203;-73
2022/06/04 05:48:50;;;;;;;3.50;3.20;;;;;;;13.06;100.00;102359.34;5034784;28;20608;-72
2022/06/04 05:51:19;;;;;;;3.40;3.10;;;;;;;13.00;100.00;102354.69;5039376;28;20188;-72
2022/06/04 05:53:45;;;;;;;4.17;3.40;;;;;;;13.07;100.00;102358.31;5041367;28;20478;-69
2022/06/04 05:56:21;;;;;;;4.50;3.40;;;;;;;13.15;100.00;102355.59;5042076;28;21498;-72
2022/06/04 05:58:48;;;;;;;5.03;3.20;;;;;;;13.09;100.00;102323.97;5032917;28;20481;-71
2022/06/04 06:01:15;;;;;;;3.73;3.03;;;;;;;12.86;100.00;102294.34;5026013;28;20540;-71
2022/06/04 06:03:42;;;;;;;3.57;3.10;;;;;;;13.11;100.00;102319.25;5032728;28;20452;-72
2022/06/04 06:06:16;;;;;;;3.20;3.00;;;;;;;13.14;100.00;102324.28;5039859;28;20505;-73
2022/06/04 06:08:41;;;;;;;4.80;3.10;;;;;;;12.87;100.00;102302.25;5037498;28;20431;-73
2022/06/04 06:11:13;;;;;;;3.53;2.63;;;;;;;13.29;100.00;102362.09;5038411;28;20440;-71
2022/06/04 06:13:40;;;;;;;3.73;2.80;;;;;;;13.29;100.00;102348.63;5040887;28;20666;-72
2022/06/04 06:16:07;;;;;;;3.57;3.23;;;;;;;13.47;100.00;102359.09;5057241;28;21113;-72
2022/06/04 06:18:34;;;;;;;3.40;2.87;;;;;;;13.42;100.00;102329.13;5037471;28;20461;-71
2022/06/04 06:21:04;;;;;;;7.50;2.87;;;;;;;13.65;100.00;102342.59;5032849;28;20443;-72
2022/06/04 06:23:30;;;;;;;4.53;3.40;;;;;;;13.52;100.00;102324.34;5039047;28;20450;-72
2022/06/04 06:25:56;;;;;;;4.00;2.97;;;;;;;13.25;100.00;102256.53;5039678;28;20969;-74
2022/06/04 06:28:22;;;;;;;2.70;2.50;;;;;;;13.36;100.00;102274.09;5038003;28;20454;-73
2022/06/04 06:30:49;;;;;;;3.77;3.07;;;;;;;13.86;100.00;102350.81;5030566;28;20215;-72
2022/06/04 06:33:14;;;;;;;3.53;2.57;;;;;;;13.44;100.00;102287.50;5035707;28;20202;-73
2022/06/04 06:35:40;;;;;;;2.70;2.50;;;;;;;13.66;100.00;102326.25;5036065;28;20927;-73
2022/06/04 06:38:05;;;;;;;3.27;2.83;;;;;;;13.76;100.00;102353.75;5037674;28;20242;-73
2022/06/04 06:40:31;;;;;;;3.70;2.50;;;;;;;13.70;100.00;102337.50;5034785;28;20305;-71
2022/06/04 06:42:56;;;;;;;3.03;2.53;;;;;;;14.16;100.00;102377.84;5032322;28;20561;-71
2022/06/04 06:45:22;;;;;;;2.50;2.30;;;;;;;14.18;100.00;102378.50;5029366;28;20850;-72
2022/06/04 06:47:47;;;;;;;3.47;3.00;;;;;;;14.13;100.00;102372.81;5032021;28;20218;-71
2022/06/04 06:50:15;;;;;;;2.47;2.27;;;;;;;14.23;100.00;102359.88;5037482;28;20275;-70
2022/06/04 06:52:41;;;;;;;3.63;2.80;;;;;;;14.28;100.00;102367.41;5034172;28;20188;-71
2022/06/04 06:55:06;;;;;;;3.90;2.73;;;;;;;14.35;100.00;102373.72;5051388;28;20970;-71
2022/06/04 06:57:32;;;;;;;2.87;2.60;;;;;;;13.88;100.00;102302.06;5038010;28;20207;-71
2022/06/04 06:59:57;;;;;;;3.20;2.53;;;;;;;14.30;100.00;102339.22;5031175;28;20439;-71
2022/06/04 07:02:23;;;;;;;2.77;2.57;;;;;;;13.90;100.00;102238.84;5035555;28;20224;-71
2022/06/04 07:04:48;;;;;;;3.07;2.33;;;;;;;14.33;100.00;102324.50;5038784;28;20229;-70
2022/06/04 07:07:13;;;;;;;3.20;2.90;;;;;;;14.41;100.00;102319.03;5040243;28;20729;-70
2022/06/04 07:09:41;;;;;;;2.90;2.60;;;;;;;14.26;100.00;102302.81;5040385;28;20219;-71
2022/06/04 07:12:08;;;;;;;2.53;2.17;;;;;;;14.32;100.00;102302.09;5037130;28;20275;-71
2022/06/04 07:14:35;;;;;;;2.77;2.53;;;;;;;14.86;100.00;102390.00;5035526;28;20439;-71
2022/06/04 07:17:00;;;;;;;2.50;2.20;;;;;;;14.98;100.00;102382.25;5027703;28;20461;-70
2022/06/04 07:19:27;;;;;;;4.20;2.23;;;;;;;14.96;100.00;102385.16;5033409;28;20486;-71
2022/06/04 07:21:54;;;;;;;3.53;2.60;;;;;;;14.90;100.00;102365.16;5025035;28;20199;-71
2022/06/04 07:24:20;;;;;;;4.53;2.37;;;;;;;14.87;100.00;102360.13;5035099;28;20444;-70
2022/06/04 07:26:46;;;;;;;2.53;2.17;;;;;;;15.12;100.00;102387.59;5033331;28;20466;-71
2022/06/04 07:29:12;;;;;;;2.77;2.17;;;;;;;15.15;100.00;102376.41;5029022;28;20697;-71
2022/06/04 07:31:38;;;;;;;4.10;2.47;;;;;;;14.74;100.00;102354.56;5034310;28;20448;-73
2022/06/04 07:34:04;;;;;;;4.10;2.60;;;;;;;14.83;100.00;102368.78;5028617;28;20496;-70
2022/06/04 07:36:33;;;;;;;2.00;1.87;;;;;;;14.57;100.00;102296.38;5031485;28;20966;-70
2022/06/04 07:38:58;;;;;;;3.00;2.43;;;;;;;15.14;100.00;102384.72;5035328;28;20434;-72
2022/06/04 07:41:30;;;;;;;2.87;2.10;;;;;;;14.79;100.00;102322.41;5039779;28;20458;-71
2022/06/04 07:43:57;;;;;;;3.30;2.43;;;;;;;14.99;100.00;102373.13;5036407;28;20191;-76
2022/06/04 07:46:24;;;;;;;2.23;2.03;;;;;;;15.12;100.00;102371.41;5034296;28;20590;-72
2022/06/04 07:48:49;;;;;;;2.50;2.30;;;;;;;15.07;100.00;102370.28;5032716;28;20477;-74
2022/06/04 07:51:17;;;;;;;3.17;2.80;;;;;;;15.21;100.00;102376.69;5033411;28;20447;-72
2022/06/04 07:53:43;;;;;;;3.67;2.53;;;;;;;15.18;100.00;102377.06;5037095;28;20248;-72
2022/06/04 07:56:12;;;;;;;2.60;1.90;;;;;;;14.90;100.00;102346.22;5032338;28;20890;-72
2022/06/04 07:58:38;;;;;;;2.27;2.07;;;;;;;15.09;100.00;102352.84;5032860;28;20457;-73
2022/06/04 08:01:04;;;;;;;2.37;2.17;;;;;;;15.31;100.00;102388.88;5034934;28;20882;-72
2022/06/04 08:03:35;;;;;;;3.07;1.97;;;;;;;15.28;100.00;102378.44;5031074;28;20211;-72
2022/06/04 08:06:03;;;;;;;2.47;1.97;;;;;;;15.03;100.00;102331.19;5030505;28;20482;-71
2022/06/04 08:08:29;;;;;;;4.00;2.60;;;;;;;15.46;100.00;102372.56;5036417;28;20435;-71
2022/06/04 08:10:55;;;;;;;3.67;2.23;;;;;;;15.45;100.00;102381.72;5031148;28;20439;-71
2022/06/04 08:13:26;;;;;;;2.47;2.20;;;;;;;15.11;100.00;102331.91;5036094;28;20446;-71
2022/06/04 08:16:00;;;;;;;3.00;2.53;;;;;;;15.31;100.00;102366.41;5033768;28;20184;-71
2022/06/04 08:18:26;;;;;;;3.73;2.50;;;;;;;15.52;100.00;102384.47;5035292;28;20441;-71
2022/06/04 08:20:53;;;;;;;2.70;2.13;;;;;;;15.46;100.00;102366.34;5032588;28;20434;-72
2022/06/04 08:23:19;;;;;;;5.30;2.67;;;;;;;15.50;100.00;102373.84;5030382;28;20435;-72
2022/06/04 08:25:48;;;;;;;3.40;2.47;;;;;;;15.54;100.00;102360.78;5027496;28;20945;-72
2022/06/04 08:28:15;;;;;;;2.50;2.13;;;;;;;15.68;100.00;102372.56;5021761;28;20442;-73
2022/06/04 08:30:41;;;;;;;3.33;2.13;;;;;;;15.25;100.00;102323.94;5024717;28;20473;-73
2022/06/04 08:33:07;;;;;;;2.47;2.27;;;;;;;15.67;100.00;102371.72;5026266;28;20442;-73
2022/06/04 08:35:32;;;;;;;3.90;2.10;;;;;;;15.53;100.00;102365.34;5023984;28;20450;-72
2022/06/04 08:37:57;;;;;;;3.27;2.33;;;;;;;15.35;100.00;102327.13;5028936;28;20256;-73
2022/06/04 08:40:45;;;;;;;3.03;2.80;;;;;;;15.91;100.00;102372.34;5035488;28;20188;-73
2022/06/04 08:43:29;;;;;;;4.60;2.57;;;;;;;15.85;100.00;102389.38;5026364;28;20199;-71
2022/06/04 08:45:55;;;;;;;5.53;3.30;;;;;;;15.87;100.00;102395.44;5029669;28;20463;-74
2022/06/04 08:48:32;;;;;;;3.53;3.23;;;;;;;15.65;100.00;102370.22;5027231;28;20459;-80
2022/06/04 08:50:57;;;;;;;7.17;2.77;;;;;;;15.45;100.00;102314.13;5029373;28;20652;-81
2022/06/04 08:53:28;;;;;;;3.77;2.40;;;;;;;16.06;100.00;102400.16;5030378;28;20477;-80
2022/06/04 08:59:01;;;;;;;5.10;2.00;;;;;;;16.22;100.00;102397.13;5028055;28;20465;-82
2022/06/04 09:01:35;;;;;;;3.30;2.30;;;;;;;15.74;100.00;102332.06;5043802;28;20431;-81
2022/06/04 09:04:10;;;;;;;2.67;2.40;;;;;;;16.16;100.00;102394.38;5026063;28;20520;-78
2022/06/04 09:06:49;;;;;;;3.13;2.83;;;;;;;16.16;100.00;102375.44;5028205;28;20474;-76
2022/06/04 09:09:22;;;;;;;14.47;3.97;;;;;;;16.00;100.00;102379.31;5032193;28;20461;-81
2022/06/04 09:11:54;;;;;;;8.50;3.23;;;;;;;15.58;100.00;102313.38;5031712;28;20497;-75
2022/06/04 09:14:22;;;;;;;6.93;2.70;;;;;;;16.03;100.00;102395.97;5024512;28;20439;-73
2022/06/04 09:17:01;;;;;;;3.40;2.40;;;;;;;16.31;100.00;102389.69;5016679;28;20820;-69
2022/06/04 09:19:33;;;;;;;4.10;3.13;;;;;;;16.27;100.00;102389.25;5017760;28;20442;-68
2022/06/04 09:21:58;;;;;;;3.70;2.70;;;;;;;16.28;100.00;102377.38;5027208;28;20445;-68
2022/06/04 09:24:25;;;;;;;3.37;2.00;;;;;;;16.15;100.00;102379.19;5029995;28;20446;-68
2022/06/04 09:27:05;;;;;;;9.70;2.20;;;;;;;16.27;100.00;102367.59;5027592;28;20288;-74
2022/06/04 09:29:55;;;;;;;8.80;2.63;;;;;;;16.35;100.00;102382.84;5025122;28;20465;-68
2022/06/04 09:32:26;;;;;;;7.80;3.73;;;;;;;16.56;100.00;102381.09;5023571;28;20438;-66
2022/06/04 09:34:54;;;;;;;13.87;5.53;;;;;;;16.52;100.00;102386.06;5025731;28;20449;-65
2022/06/04 09:37:19;;;;;;;85.77;13.67;;;;;;;16.70;100.00;102382.81;5026828;28;20896;-66
2022/06/04 09:39:47;;;;;;;24.30;8.87;;;;;;;16.77;100.00;102382.88;5031722;28;20446;-68
2022/06/04 09:42:13;;;;;;;9.30;5.00;;;;;;;16.77;100.00;102386.41;5032063;28;20859;-73
2022/06/04 09:44:50;;;;;;;10.10;2.93;;;;;;;16.79;100.00;102392.47;5031447;28;20529;-76
2022/06/04 09:47:27;;;;;;;2.93;2.13;;;;;;;16.67;100.00;102385.94;5030252;28;20231;-79
2022/06/04 09:49:59;;;;;;;3.20;2.30;;;;;;;16.82;100.00;102385.81;5031428;28;20458;-78
2022/06/04 09:52:43;;;;;;;3.97;2.30;;;;;;;16.69;100.00;102378.41;5042282;28;20436;-80
2022/06/04 09:55:19;;;;;;;3.90;2.37;;;;;;;16.93;100.00;102388.78;5040683;28;20430;-80
2022/06/04 09:58:18;;;;;;;2.17;1.97;;;;;;;16.92;100.00;102356.44;5040674;28;20437;-80
2022/06/04 10:00:54;;;;;;;3.47;2.50;;;;;;;17.08;100.00;102382.34;5026522;28;20450;-80
2022/06/04 10:03:19;;;;;;;4.53;2.50;;;;;;;16.68;100.00;102319.84;5039736;28;20434;-81
2022/06/04 10:06:08;;;;;;;4.60;2.37;;;;;;;17.07;100.00;102381.53;5041209;28;20422;-80
2022/06/04 10:11:23;;;;;;;3.00;2.23;;;;;;;16.94;100.00;102338.94;5040962;28;20450;-85
2022/06/04 10:13:52;;;;;;;3.03;2.73;;;;;;;17.15;100.00;102380.47;5044732;28;20419;-87
2022/06/04 10:16:21;;;;;;;2.30;2.10;;;;;;;17.26;100.00;102388.00;5048252;28;20533;-82
2022/06/04 10:19:14;;;;;;;3.13;2.40;;;;;;;17.24;100.00;102375.69;5040198;28;20423;-86
2022/06/04 10:21:41;;;;;;;3.87;2.60;;;;;;;17.32;100.00;102380.94;5044722;28;20898;-79
2022/06/04 10:24:20;;;;;;;2.77;2.27;;;;;;;16.70;100.00;102293.41;5047451;28;20423;-84
2022/06/04 10:27:10;;;;;;;4.73;2.13;;;;;;;17.10;100.00;102380.28;5044479;28;21044;-81
2022/06/04 10:29:48;;;;;;;2.30;1.90;;;;;;;17.21;100.00;102384.25;5041782;28;20458;-81
2022/06/04 10:32:53;;;;;;;3.17;2.53;;;;;;;17.27;100.00;102387.00;5042896;28;20983;-74
2022/06/04 10:35:46;;;;;;;2.67;2.30;;;;;;;17.32;100.00;102387.19;5039513;28;20410;-75
2022/06/04 10:38:23;;;;;;;2.37;2.17;;;;;;;17.43;100.00;102384.91;5036864;28;20552;-80
2022/06/04 10:41:13;;;;;;;3.30;2.73;;;;;;;17.86;100.00;102379.97;5036410;28;25119;-78
2022/06/04 10:43:57;;;;;;;3.13;2.00;;;;;;;17.90;100.00;102388.50;5039196;28;25171;-77
2022/06/04 10:46:57;;;;;;;3.53;1.97;;;;;;;17.86;100.00;102395.41;5039976;28;20466;-79
2022/06/04 10:50:05;;;;;;;2.90;2.60;;;;;;;17.97;100.00;102392.06;5041596;28;21004;-78
2022/06/04 10:52:53;;;;;;;3.67;2.80;;;;;;;17.33;100.00;102315.66;5038992;28;20442;-77
2022/06/04 10:55:24;;;;;;;2.63;1.93;;;;;;;17.95;100.00;102408.56;5035766;28;25135;-80
2022/06/04 10:58:14;;;;;;;3.60;2.73;;;;;;;17.89;100.00;102409.41;5040590;28;25111;-76
2022/06/04 11:00:54;;;;;;;3.10;2.50;;;;;;;17.71;100.00;102403.72;5036581;28;20429;-76
2022/06/04 11:03:32;;;;;;;2.93;1.83;;;;;;;17.87;100.00;102402.50;5040451;28;20434;-75
2022/06/04 11:06:29;;;;;;;4.60;2.10;;;;;;;17.84;100.00;102382.03;5032831;28;20465;-77
2022/06/04 11:09:12;;;;;;;2.50;2.17;;;;;;;17.84;100.00;102341.31;5025349;28;20442;-77
2022/06/04 11:11:43;;;;;;;3.67;1.87;;;;;;;18.10;100.00;102397.47;5032234;28;20447;-78
2022/06/04 11:14:21;;;;;;;2.63;2.43;;;;;;;17.63;100.00;102317.94;5034661;28;20453;-74
2022/06/04 11:16:56;;;;;;;1.77;1.60;;;;;;;17.67;100.00;102332.75;5040715;28;20454;-76
2022/06/04 11:19:38;;;;;;;3.70;2.30;;;;;;;18.49;100.00;102406.59;5039086;28;20517;-72
2022/06/04 11:22:35;;;;;;;3.40;2.37;;;;;;;18.53;100.00;102411.38;5034115;28;20433;-74
2022/06/04 11:25:27;;;;;;;2.30;1.60;;;;;;;18.37;100.00;102357.50;5029735;28;20434;-74
2022/06/04 11:28:05;;;;;;;4.93;2.53;;;;;;;18.14;100.00;102396.00;5034933;28;20988;-82
2022/06/04 11:30:39;;;;;;;7.13;2.80;;;;;;;18.53;100.00;102418.69;5030726;28;20473;-76
2022/06/04 11:33:48;;;;;;;10.30;2.90;;;;;;;18.87;100.00;102408.56;5034707;28;20437;-81
2022/06/04 11:36:28;;;;;;;27.00;3.93;;;;;;;18.93;100.00;102405.81;5029115;28;20472;-78
2022/06/04 11:39:04;;;;;;;10.60;2.90;;;;;;;18.86;100.00;102412.31;5023276;28;20435;-83
2022/06/04 11:42:00;;;;;;;38.97;3.90;;;;;;;19.15;100.00;102402.75;5032436;28;20723;-72
2022/06/04 11:44:31;;;;;;;5.17;2.27;;;;;;;19.02;100.00;102413.72;5029276;28;20430;-79
2022/06/04 11:47:11;;;;;;;3.30;2.93;;;;;;;18.90;100.00;102408.97;5025634;28;20859;-79
2022/06/04 11:49:49;;;;;;;4.60;2.90;;;;;;;19.08;100.00;102410.13;5031161;28;20492;-71
2022/06/04 11:52:27;;;;;;;4.20;2.50;;;;;;;18.17;100.00;102318.72;5025657;28;20953;-72